Thunder radar more information blitzortung!


Radar de pluja more information rain snow radar


Visita la nostra xarxa de llocs de meteo:

Template documentation
and downloads

And another site



No particular awareness of the weather is required.    There are no Weather-warnings

Pagina Historial Weather Underground text

Diari Resum Juliol 14, 2017 Unitats:  Imperial    Mètric   Tant
« Previous Dia
SegĂźent Dia »
Diari Setmana Mensual Anual Personalitzada
  Maxima: Minima: Media:
Temperatura: 89.2 °F 75 °F 80.2 °F
Punt de rosada: 70.7 °F 65.1 °F 67.3 °F
Humitat: 81 % 48 % 65 %
Wind Speed: 10.4 mph 0 mph 4.2 mph
RĂ fegues de vent: 13 mph - -
Vent:- - SSE
Pression baro: 30.1 in 29.9 in -
Precipitacions: 0 in    
Historical Graphs
 
 
Dades de taula per Juliol 14, 2017
Temps Temperatura Punt de rosada Pression baro Vent Wind Speed RĂ fegues de vent Humitat Rainfall Rate (Hourly)
00:01 76.1 °F 68.7 °F 30 in East 3.5 mph 3.5 mph 78 % 0 in
00:05 75.6 °F 68.5 °F 30 in Calm   2 mph 79 % 0 in
00:06 76.1 °F 68.7 °F 30 in ESE 3.8 mph 3.8 mph 78 % 0 in
00:11 76.1 °F 69.1 °F 30 in East 3.5 mph 3.5 mph 79 % 0 in
00:15 75.6 °F 69.1 °F 30 in SW 1 mph 2 mph 80 % 0 in
00:25 75.4 °F 68.7 °F 30 in SW 1 mph 1 mph 80 % 0 in
00:35 75.4 °F 68.7 °F 30 in Calm   1 mph 80 % 0 in
00:45 75.4 °F 68.7 °F 30 in Calm     80 % 0 in
00:55 75.4 °F 68.7 °F 30 in Calm   1 mph 80 % 0 in
01:05 75.4 °F 68.7 °F 30 in NW 1 mph 2 mph 80 % 0 in
01:15 75.4 °F 68.7 °F 30 in Calm   1 mph 80 % 0 in
01:25 75.4 °F 68.7 °F 30 in Calm   1 mph 80 % 0 in
01:35 75.4 °F 68.7 °F 30 in Calm   2 mph 80 % 0 in
01:45 75.2 °F 68.5 °F 30 in Calm     80 % 0 in
01:55 75.2 °F 68.5 °F 30 in SW 1 mph 2 mph 80 % 0 in
02:05 75.4 °F 68.7 °F 30 in SW 1 mph 1 mph 80 % 0 in
02:15 75.2 °F 68.5 °F 30 in WSW 2 mph 4 mph 80 % 0 in
02:25 75.2 °F 68.5 °F 30 in SW 2 mph 3 mph 80 % 0 in
02:35 75 °F 68.4 °F 30 in SW 3 mph 4 mph 80 % 0 in
02:45 75.2 °F 68.5 °F 30 in SW 2 mph 2 mph 80 % 0 in
02:55 75.2 °F 69.1 °F 30 in SW 2 mph 4 mph 81 % 0 in
03:05 75.4 °F 69.1 °F 30 in SW 2 mph 3 mph 81 % 0 in
03:15 75.6 °F 69.1 °F 30 in WSW 1 mph 3 mph 80 % 0 in
03:25 76.1 °F 69.4 °F 30 in Calm   3 mph 80 % 0 in
03:35 76.5 °F 69.4 °F 30.1 in SW 2 mph 3 mph 79 % 0 in
03:45 76.6 °F 69.6 °F 30.1 in SW 3 mph 5 mph 79 % 0 in
03:55 76.8 °F 69.8 °F 30.1 in SW 1 mph 3 mph 79 % 0 in
04:05 77.2 °F 69.8 °F 30.1 in Calm   4 mph 78 % 0 in
04:15 77.9 °F 70.2 °F 30 in SW 1 mph 2 mph 77 % 0 in
04:25 78.1 °F 70 °F 30 in SW 2 mph 3 mph 76 % 0 in
04:35 78.4 °F 70.2 °F 30.1 in SSW 2 mph 3 mph 76 % 0 in
04:45 78.4 °F 70 °F 30.1 in South 2 mph 3 mph 75 % 0 in
04:55 79.3 °F 70.7 °F 30.1 in SSW 1 mph 4 mph 75 % 0 in
05:05 79.7 °F 70 °F 30.1 in SW 2 mph 4 mph 72 % 0 in
05:15 80.1 °F 69.4 °F 30.1 in SSW 3 mph 3 mph 70 % 0 in
10:23 80.2 °F 69.1 °F 30.1 in ESE 2.4 mph 3.3 mph 69 % 0 in
10:28 79.2 °F 68.2 °F 30.1 in ESE 4.9 mph 4.9 mph 69 % 0 in
10:33 78.4 °F 67.5 °F 30.1 in NE 6.9 mph 6.9 mph 69 % 0 in
10:38 78.3 °F 67.3 °F 30.1 in ENE 4.6 mph 4.6 mph 69 % 0 in
10:43 77.9 °F 66.6 °F 30.1 in ENE 5.8 mph 5.8 mph 68 % 0 in
10:48 77.5 °F 66 °F 30.1 in ENE 6.9 mph 6.9 mph 68 % 0 in
10:53 77.7 °F 66.4 °F 30.1 in ESE 5.8 mph 5.8 mph 68 % 0 in
10:58 77.9 °F 66.6 °F 30.1 in North 5.8 mph 5.8 mph 68 % 0 in
11:03 78.1 °F 66.7 °F 30.1 in ENE 6.9 mph 6.9 mph 68 % 0 in
11:08 78.3 °F 66.7 °F 30.1 in ESE 8.1 mph 8.1 mph 68 % 0 in
11:13 77.9 °F 66.6 °F 30.1 in ENE 8.1 mph 8.1 mph 68 % 0 in
11:18 77.7 °F 66.4 °F 30.1 in ENE 5.8 mph 5.8 mph 68 % 0 in
11:23 77.9 °F 66.9 °F 30 in East 5.8 mph 5.8 mph 69 % 0 in
11:28 77.9 °F 66.6 °F 30 in ESE 6.2 mph 6.2 mph 68 % 0 in
11:33 77.9 °F 66.9 °F 30 in ENE 4.6 mph 4.6 mph 69 % 0 in
11:38 77.9 °F 66.9 °F 30 in ENE 6 mph 6 mph 69 % 0 in
11:43 77.9 °F 66.9 °F 30 in ESE 5.8 mph 5.8 mph 69 % 0 in
11:48 77.9 °F 66.9 °F 30 in SSE 6.9 mph 6.9 mph 69 % 0 in
11:53 78.1 °F 67.5 °F 30 in SE 2.3 mph 2.3 mph 70 % 0 in
11:58 78.4 °F 67.8 °F 30 in SSE 3.5 mph 3.5 mph 70 % 0 in
12:03 78.4 °F 67.8 °F 30 in ESE 4 mph 4 mph 70 % 0 in
12:08 78.6 °F 68 °F 30 in ENE 8.1 mph 8.1 mph 70 % 0 in
12:13 78.6 °F 68 °F 30 in ESE 4.6 mph 4.6 mph 70 % 0 in
12:18 78.6 °F 68 °F 30 in ESE 8.1 mph 8.1 mph 70 % 0 in
12:23 78.8 °F 68.2 °F 30 in ENE 5.8 mph 5.8 mph 70 % 0 in
12:28 79 °F 68.4 °F 30 in ESE 5.8 mph 5.8 mph 70 % 0 in
12:33 79.2 °F 68.5 °F 30 in ENE 6.9 mph 6.9 mph 70 % 0 in
12:38 79 °F 68.4 °F 30 in ESE 2.3 mph 2.3 mph 70 % 0 in
12:43 79.9 °F 69.3 °F 30 in SSW 3.5 mph 3.5 mph 70 % 0 in
12:48 80.2 °F 69.1 °F 30 in East 2.3 mph 2.3 mph 69 % 0 in
12:53 80.1 °F 68.5 °F 30 in ESE 5.8 mph 5.8 mph 68 % 0 in
12:58 79.7 °F 68.5 °F 30 in NE 2.3 mph 2.3 mph 69 % 0 in
13:03 79.9 °F 68.7 °F 30 in ENE 4.6 mph 4.6 mph 69 % 0 in
13:08 80.1 °F 69.1 °F 30 in East 4.6 mph 4.6 mph 69 % 0 in
13:13 80.1 °F 69.1 °F 30 in SE 2.3 mph 2.3 mph 69 % 0 in
13:18 80.6 °F 69.1 °F 30 in ENE 3.5 mph 3.5 mph 68 % 0 in
13:23 80.6 °F 69.1 °F 30 in ENE 1.2 mph 1.2 mph 68 % 0 in
13:28 81 °F 69.4 °F 30 in SE 1.4 mph   68 % 0 in
13:33 81.3 °F 69.3 °F 30 in NW 2.3 mph 2.3 mph 67 % 0 in
13:38 82.2 °F 68.4 °F 30.1 in WSW 4.6 mph 4.6 mph 63 % 0 in
13:43 83.7 °F 69.3 °F 30.1 in SW 2.3 mph 2.3 mph 62 % 0 in
13:48 84.7 °F 69.3 °F 30.1 in SW 2.3 mph 2.4 mph 60 % 0 in
13:53 85.3 °F 69.3 °F 30 in SW 6.9 mph 6.9 mph 59 % 0 in
13:58 85.6 °F 68.7 °F 30 in WSW 9 mph 9 mph 57 % 0 in
14:03 86.2 °F 68.5 °F 30 in South 9.2 mph 9.2 mph 56 % 0 in
14:08 87.1 °F 68.4 °F 30 in SW 5.8 mph 5.8 mph 54 % 0 in
14:13 86.7 °F 68.2 °F 30 in SW 6.9 mph 6.9 mph 54 % 0 in
14:18 87.1 °F 67.3 °F 30 in SSE 4.3 mph 4.3 mph 52 % 0 in
14:23 88.2 °F 67.8 °F 30 in SW 8.1 mph 8.1 mph 51 % 0 in
14:28 87.4 °F 67.6 °F 30 in NW 5.8 mph 5.8 mph 52 % 0 in
14:33 88.2 °F 67.3 °F 30 in SW 5.8 mph 5.8 mph 50 % 0 in
14:38 89.1 °F 68 °F 30 in West 4.9 mph 4.9 mph 50 % 0 in
14:43 87.1 °F 66.2 °F 30 in SSW 8.1 mph 8.1 mph 50 % 0 in
14:48 87.3 °F 66.4 °F 30 in South 5.8 mph 5.8 mph 50 % 0 in
14:53 87.1 °F 66.2 °F 30 in SW 7.6 mph 7.6 mph 50 % 0 in
14:58 86.7 °F 66.4 °F 30 in South 8.1 mph 8.1 mph 51 % 0 in
15:03 87.1 °F 66.2 °F 30 in SSE 3.5 mph 3.5 mph 50 % 0 in
15:08 86.5 °F 65.7 °F 30 in West 9.2 mph 9.2 mph 50 % 0 in
15:13 86.9 °F 66.6 °F 30 in SW 10.4 mph 10.4 mph 51 % 0 in
15:18 88 °F 66.9 °F 30 in SSW 9.2 mph 9.2 mph 50 % 0 in
15:23 88.3 °F 66.7 °F 30 in West 8.1 mph 8.1 mph 49 % 0 in
15:28 88.3 °F 66.7 °F 30 in SSW 9.2 mph 9.2 mph 49 % 0 in
15:33 89.1 °F 67.5 °F 30 in West 4.6 mph 4.6 mph 49 % 0 in
15:35 89.2 °F 66.9 °F 30 in SW 3.5 mph 3.5 mph 48 % 0 in
15:40 88 °F 65.8 °F 30 in SW 6 mph 13 mph 48 % 0 in
15:45 88.3 °F 66.7 °F 30 in SW 3 mph 7 mph 49 % 0 in
15:50 87.3 °F 65.8 °F 30 in SSW 3 mph 10 mph 49 % 0 in
15:55 86.5 °F 65.1 °F 30 in South 3 mph 8 mph 49 % 0 in
16:00 86.5 °F 65.8 °F 30 in South 2 mph 5 mph 50 % 0 in
16:05 86.9 °F 66.6 °F 30 in South 3 mph 7 mph 51 % 0 in
16:10 85.6 °F 65.5 °F 30 in South 5 mph 10 mph 51 % 0 in
16:15 85.8 °F 65.7 °F 30 in SSW 3 mph 6 mph 51 % 0 in
16:20 86 °F 65.8 °F 30 in SW 5 mph 6 mph 51 % 0 in
16:25 86.4 °F 66 °F 30 in SW 3 mph 7 mph 51 % 0 in
16:30 87.6 °F 67.3 °F 30 in SSW 2 mph 6 mph 51 % 0 in
16:35 87.6 °F 66.7 °F 30 in SW 6 mph 9 mph 50 % 0 in
16:40 87.4 °F 66.6 °F 30 in SW 3 mph 9 mph 50 % 0 in
16:45 87.3 °F 66.4 °F 30 in SW 5 mph 9 mph 50 % 0 in
16:50 85.8 °F 65.7 °F 30 in SW 5.8 mph 5.8 mph 51 % 0 in
16:55 86 °F 65.8 °F 30 in SSE 4.9 mph 4.9 mph 51 % 0 in
17:00 86 °F 65.8 °F 30 in West 3.5 mph 3.5 mph 51 % 0 in
17:02 86.2 °F 65.8 °F 30 in West 6.9 mph 6.9 mph 51 % 0 in
17:07 85.8 °F 65.7 °F 30 in SSW 5.8 mph 5.8 mph 51 % 0 in
17:12 86.5 °F 66.4 °F 30 in South 5.8 mph 5.8 mph 51 % 0 in
17:17 86.7 °F 66.4 °F 30 in South 6.9 mph 6.9 mph 51 % 0 in
17:22 86.5 °F 66.4 °F 30 in SSW 8.1 mph 8.1 mph 51 % 0 in
17:27 85.6 °F 66 °F 29.9 in SSW 5.8 mph 5.8 mph 52 % 0 in
17:32 85.1 °F 65.5 °F 29.9 in WSW 5.8 mph 5.8 mph 52 % 0 in
17:37 85.8 °F 66.2 °F 29.9 in SW 8.1 mph 8.1 mph 52 % 0 in
17:42 86.7 °F 66.9 °F 29.9 in SW 4.6 mph 4.6 mph 52 % 0 in
17:47 86.9 °F 67.3 °F 29.9 in SSW 6.2 mph 6.2 mph 52 % 0 in
17:52 85.3 °F 66.2 °F 29.9 in SSW 10.4 mph 10.4 mph 53 % 0 in
17:57 85.3 °F 66.2 °F 30 in South 6.2 mph 6.2 mph 53 % 0 in
18:02 85.1 °F 66 °F 30 in SSW 8.1 mph 8.1 mph 53 % 0 in
18:07 85.3 °F 66.7 °F 30 in SSW 4.6 mph 4.6 mph 54 % 0 in
18:12 85.8 °F 67.3 °F 30 in SW 4.6 mph 4.6 mph 54 % 0 in
18:17 85.8 °F 67.3 °F 30 in SW 3.5 mph 3.5 mph 54 % 0 in
18:22 86.7 °F 67.5 °F 30 in SSW 5.8 mph 5.8 mph 53 % 0 in
18:27 86.2 °F 66.9 °F 29.9 in South 8.1 mph 8.1 mph 53 % 0 in
18:32 85.5 °F 66.9 °F 29.9 in South 8.1 mph 8.1 mph 54 % 0 in
18:37 84.4 °F 65.8 °F 29.9 in ENE 5.8 mph 5.8 mph 54 % 0 in
18:42 84.2 °F 66.4 °F 30 in WSW 4.6 mph 4.6 mph 55 % 0 in
18:47 84 °F 66.6 °F 30 in SW 5.6 mph 5.6 mph 56 % 0 in
18:52 83.5 °F 66 °F 30 in ESE 5.8 mph 5.8 mph 56 % 0 in
18:57 82.6 °F 65.8 °F 30 in ESE 2.3 mph 2.3 mph 57 % 0 in
19:02 82 °F 65.8 °F 30 in ESE 4.6 mph 4.6 mph 58 % 0 in
19:07 80.6 °F 65.5 °F 30 in ESE 5.8 mph 5.8 mph 60 % 0 in
19:12 79.7 °F 65.5 °F 30 in SSE 5.8 mph 5.8 mph 62 % 0 in
19:17 80.6 °F 65.5 °F 30 in South 4.6 mph 4.6 mph 60 % 0 in
19:22 80.8 °F 65.7 °F 30 in SSE 3.5 mph 3.5 mph 60 % 0 in
19:27 80.1 °F 65.5 °F 30 in West 3.5 mph 3.5 mph 61 % 0 in
19:32 80.2 °F 66 °F 30 in West 3.5 mph 3.5 mph 62 % 0 in
19:37 80.4 °F 66.2 °F 30 in SSE 4.6 mph 4.6 mph 62 % 0 in
19:42 80.4 °F 66.2 °F 30 in South 2 mph   62 % 0 in
19:47 80.1 °F 66.4 °F 30 in ESE 3.8 mph 3.8 mph 63 % 0 in
19:52 79.3 °F 65.7 °F 30 in WSW 0.9 mph   63 % 0 in
19:57 78.8 °F 65.7 °F 30 in East 4.6 mph 4.6 mph 64 % 0 in
20:02 78.1 °F 65.5 °F 30 in East 4.6 mph 4.6 mph 65 % 0 in
20:07 77.9 °F 65.7 °F 30 in East 5.8 mph 5.8 mph 66 % 0 in
20:12 77.7 °F 65.8 °F 30 in East 5.8 mph 5.8 mph 67 % 0 in
20:17 77.4 °F 65.5 °F 30 in East 5.8 mph 5.8 mph 67 % 0 in
20:22 77.2 °F 65.5 °F 30 in East 4.6 mph 4.6 mph 67 % 0 in
20:27 77.2 °F 65.8 °F 30 in WNW 5.8 mph 5.8 mph 68 % 0 in
20:32 77 °F 65.7 °F 30 in ESE 5.8 mph 5.8 mph 68 % 0 in
20:37 76.6 °F 66.6 °F 30 in ENE 5.8 mph 5.8 mph 71 % 0 in
20:42 76.6 °F 66 °F 30 in SSE 4.6 mph 4.6 mph 70 % 0 in
20:47 76.5 °F 65.8 °F 30 in ENE 4.6 mph 4.6 mph 70 % 0 in
20:52 76.5 °F 66.4 °F 30 in East 2.3 mph 2.3 mph 71 % 0 in
20:57 76.5 °F 65.8 °F 30 in NNE 3.5 mph 3.5 mph 70 % 0 in
21:02 76.5 °F 66.4 °F 30 in NE 3.5 mph 3.5 mph 71 % 0 in
21:07 76.6 °F 66.6 °F 30 in ENE 2.3 mph   71 % 0 in
21:12 76.6 °F 66.6 °F 30 in East 4.6 mph 4.6 mph 71 % 0 in
21:17 76.5 °F 66.4 °F 30 in ENE 4.6 mph 4.6 mph 71 % 0 in
21:22 76.5 °F 66.4 °F 30 in NE 3.5 mph 3.5 mph 71 % 0 in
21:27 76.3 °F 66.2 °F 30 in ENE 3.5 mph 3.5 mph 71 % 0 in
21:32 76.1 °F 66.4 °F 30 in East 5.8 mph 5.8 mph 72 % 0 in
21:37 76.3 °F 66.2 °F 30 in East 4.6 mph 4.6 mph 71 % 0 in
21:42 76.1 °F 66.4 °F 30 in ESE 4.6 mph 4.6 mph 72 % 0 in
21:47 75.9 °F 66.6 °F 30 in ESE 5.8 mph 5.8 mph 73 % 0 in
21:52 75.7 °F 66.6 °F 30 in SE 5.8 mph 5.8 mph 73 % 0 in
21:57 75.9 °F 66.6 °F 30 in East 3.5 mph 3.5 mph 73 % 0 in
22:02 75.9 °F 66.6 °F 30 in ESE 3.5 mph 3.5 mph 73 % 0 in
22:07 75.9 °F 66.6 °F 30 in ESE 3.5 mph 3.5 mph 73 % 0 in
22:12 75.7 °F 66.6 °F 30 in SE 3.5 mph 3.5 mph 73 % 0 in
22:17 75.7 °F 66.6 °F 30 in ESE 3.5 mph 3.5 mph 73 % 0 in
22:22 75.9 °F 66.6 °F 30 in SE 3.5 mph 3.5 mph 73 % 0 in
22:27 75.9 °F 66.6 °F 30 in ENE 3.5 mph 3.5 mph 73 % 0 in
22:32 75.7 °F 66.6 °F 30 in SE 3.5 mph 3.5 mph 73 % 0 in
22:37 75.7 °F 66.6 °F 30 in ESE 3.5 mph 3.5 mph 73 % 0 in
22:42 75.9 °F 66.6 °F 30 in East 3.3 mph 3.3 mph 73 % 0 in
22:47 75.9 °F 66.6 °F 30 in East 2.4 mph 2.4 mph 73 % 0 in
22:52 75.9 °F 66.6 °F 30 in NE 2.3 mph 2.3 mph 73 % 0 in
22:57 75.7 °F 66.9 °F 30 in ENE 3.5 mph 3.5 mph 74 % 0 in
23:02 75.9 °F 66.9 °F 30 in ESE 2.3 mph 3.1 mph 74 % 0 in
23:07 75.7 °F 66.6 °F 30 in ESE 3.3 mph 3.3 mph 73 % 0 in
23:12 75.7 °F 66.9 °F 30 in ESE 2.3 mph 2.3 mph 74 % 0 in
23:17 75.7 °F 66.6 °F 30 in East 1.6 mph 1.6 mph 73 % 0 in
23:22 75.7 °F 66.9 °F 30 in ESE 1.2 mph 1.2 mph 74 % 0 in
23:27 75.7 °F 66.6 °F 30 in WSW 2.3 mph 2.3 mph 73 % 0 in
23:32 75.7 °F 66.6 °F 30 in SW 2.3 mph 2.3 mph 73 % 0 in
23:37 75.7 °F 66.6 °F 30 in Calm     73 % 0 in
23:42 75.9 °F 66.6 °F 30 in WSW 2.3 mph 2.3 mph 73 % 0 in
23:47 75.9 °F 66.6 °F 30 in WSW 2.3 mph 2.3 mph 73 % 0 in
23:52 76.1 °F 66.7 °F 30.1 in West 2.3 mph 2.3 mph 73 % 0 in
23:57 76.1 °F 66.7 °F 30.1 in WSW 2.3 mph 2.3 mph 73 % 0 in
23:59 76.1 °F 66.7 °F 30.1 in WSW 2.6 mph 2.6 mph 73 % 0 in
Meteo Sesrovires
Elogis d' Weather Underground - 3.5 mb

Guio original per  Jim McMurry - jmcmurry@mwt.net Adaptat per a la plantilla per  Wim van der Kuil - Leuven-Template.eu

Trobareu la nostra informacio del temps tambe a:

Weather Underground

AWEKAS